Terminal Aerodrome Forecast
Issued by NWS Wilmington, OH

Current Version | Previous Version | Text Only | Print | Product List | Glossary On
Versions: 1 2 3 4 5 6 7 8 9 10 11 12 13 14 15 16 17 18 19 20 21 22 23 24 25 26 27 28
542
FTUS41 KILN 261459 AAC
TAFILN
TAF AMD
KILN 261459Z 2615/2712 31013G22KT P6SM -SHRA VCTS FEW021CB OVC030
      TEMPO 2615/2617 4SM -TSRA BKN021CB OVC030
     FM261700 29012G20KT P6SM BKN025
     FM262000 28012G18KT P6SM SKC
     FM270000 24005KT P6SM SKC=

USA.gov is the U.S. government's official web portal to all federal, state and local government web resources and services.